createdAt,value
2023-05-22T00:00:44.662Z,3.00
2023-05-22T00:03:12.036Z,2.95
2023-05-22T00:05:39.457Z,3.10
2023-05-22T00:08:11.695Z,3.08
2023-05-22T00:10:41.905Z,3.30
2023-05-22T00:13:09.212Z,2.80
2023-05-22T00:15:36.495Z,2.85
2023-05-22T00:18:04.061Z,3.30
2023-05-22T00:20:31.433Z,2.92
2023-05-22T00:23:01.216Z,3.05
2023-05-22T00:25:28.522Z,3.10
2023-05-22T00:27:55.809Z,2.72
2023-05-22T00:30:23.229Z,2.47
2023-05-22T00:32:50.686Z,3.10
2023-05-22T00:35:20.643Z,2.95
2023-05-22T00:37:47.900Z,2.97
2023-05-22T00:40:18.350Z,2.78
2023-05-22T00:42:45.769Z,2.95
2023-05-22T00:45:13.976Z,3.25
2023-05-22T00:47:41.991Z,3.08
2023-05-22T00:50:11.196Z,2.97
2023-05-22T00:52:39.442Z,3.00
2023-05-22T00:55:07.061Z,2.95
2023-05-22T00:57:34.838Z,3.00
2023-05-22T01:00:05.580Z,3.10
2023-05-22T01:02:33.196Z,2.88
2023-05-22T01:05:00.582Z,3.10
2023-05-22T01:07:27.798Z,2.70
2023-05-22T01:09:56.282Z,3.10
2023-05-22T01:12:39.945Z,3.10
2023-05-22T01:15:17.500Z,2.70
2023-05-22T01:18:11.302Z,2.95
2023-05-22T01:20:41.859Z,2.80
2023-05-22T01:23:15.306Z,2.88
2023-05-22T01:25:49.330Z,3.15
2023-05-22T01:28:31.893Z,3.20
2023-05-22T01:31:01.965Z,2.90
2023-05-22T01:33:34.384Z,2.83
2023-05-22T01:36:02.213Z,3.20
2023-05-22T01:38:29.763Z,2.85
2023-05-22T01:40:57.403Z,2.92
2023-05-22T01:43:24.703Z,3.10
2023-05-22T01:45:52.002Z,2.55
2023-05-22T01:48:19.298Z,2.80
2023-05-22T01:50:48.913Z,3.05
2023-05-22T01:53:20.177Z,2.85
2023-05-22T01:55:55.812Z,2.92
2023-05-22T01:58:33.873Z,2.90
2023-05-22T02:01:03.535Z,2.63
2023-05-22T02:03:34.388Z,3.10
2023-05-22T02:06:03.364Z,3.08
2023-05-22T02:08:30.727Z,2.60
2023-05-22T02:10:58.737Z,2.90
2023-05-22T02:13:26.452Z,2.60
2023-05-22T02:15:53.864Z,3.10
2023-05-22T02:18:22.377Z,2.65
2023-05-22T02:20:49.733Z,3.10
2023-05-22T02:23:17.055Z,3.30
2023-05-22T02:25:44.331Z,3.33
2023-05-22T02:28:11.582Z,2.78
2023-05-22T02:30:39.051Z,2.90
2023-05-22T02:33:06.723Z,3.05
2023-05-22T02:35:34.164Z,3.10
2023-05-22T02:38:01.707Z,2.92
2023-05-22T02:40:29.017Z,3.00
2023-05-22T02:42:56.285Z,3.17
2023-05-22T02:45:23.543Z,3.35
2023-05-22T02:47:50.826Z,3.28
2023-05-22T02:50:18.281Z,3.25
2023-05-22T02:52:45.665Z,3.22
2023-05-22T02:55:15.477Z,3.50
2023-05-22T02:57:42.746Z,2.88
2023-05-22T03:00:11.701Z,2.85
2023-05-22T03:02:39.581Z,3.17
2023-05-22T03:05:07.214Z,3.17
2023-05-22T03:07:34.833Z,3.08
2023-05-22T03:10:02.332Z,3.10
2023-05-22T03:12:29.700Z,2.80
2023-05-22T03:14:56.975Z,3.05
2023-05-22T03:17:24.225Z,3.20
2023-05-22T03:19:51.532Z,3.13
2023-05-22T03:22:19.188Z,3.30
2023-05-22T03:24:46.443Z,3.08
2023-05-22T03:27:15.140Z,3.20
2023-05-22T03:29:42.439Z,3.10
2023-05-22T03:32:09.770Z,3.20
2023-05-22T03:34:37.023Z,3.22
2023-05-22T03:37:06.833Z,3.05
2023-05-22T03:39:34.097Z,3.30
2023-05-22T03:42:01.740Z,3.20
2023-05-22T03:44:29.023Z,3.30
2023-05-22T03:46:56.414Z,3.20
2023-05-22T03:49:23.705Z,3.30
2023-05-22T03:51:51.002Z,3.05
2023-05-22T03:54:21.076Z,2.97
2023-05-22T03:56:48.423Z,3.40
2023-05-22T03:59:16.441Z,3.47
2023-05-22T04:01:43.892Z,3.28
2023-05-22T04:04:12.205Z,2.97
2023-05-22T04:06:45.553Z,3.42
2023-05-22T04:09:13.272Z,3.25
2023-05-22T04:11:40.657Z,3.20
2023-05-22T04:14:07.914Z,3.40
2023-05-22T04:16:35.847Z,3.70
2023-05-22T04:21:34.539Z,2.92
2023-05-22T04:24:02.458Z,3.08
2023-05-22T04:26:32.082Z,3.42
2023-05-22T04:28:59.424Z,2.97
2023-05-22T04:31:26.737Z,3.22
2023-05-22T04:33:54.707Z,3.25
2023-05-22T04:38:54.182Z,3.38
2023-05-22T04:41:27.736Z,3.38
2023-05-22T04:43:55.066Z,3.47
2023-05-22T04:46:22.586Z,3.30
2023-05-22T04:48:50.998Z,3.53
2023-05-22T04:51:18.458Z,3.40
2023-05-22T04:53:46.381Z,3.00
2023-05-22T04:58:43.887Z,3.38
2023-05-22T05:01:13.399Z,3.38
2023-05-22T05:03:40.844Z,3.75
2023-05-22T05:06:10.153Z,3.47
2023-05-22T05:08:37.397Z,3.60
2023-05-22T05:11:04.816Z,3.53
2023-05-22T05:16:00.563Z,3.42
2023-05-22T05:18:28.318Z,3.42
2023-05-22T05:20:55.606Z,3.00
2023-05-22T05:23:22.949Z,3.30
2023-05-22T05:25:50.205Z,3.42
2023-05-22T05:28:20.555Z,3.67
2023-05-22T05:30:47.830Z,3.03
2023-05-22T05:33:15.427Z,3.50
2023-05-22T05:35:43.230Z,3.53
2023-05-22T05:38:17.119Z,3.50
2023-05-22T05:40:47.259Z,3.50
2023-05-22T05:43:17.343Z,3.47
2023-05-22T05:45:44.767Z,3.35
2023-05-22T05:48:12.350Z,3.40
2023-05-22T05:50:42.138Z,3.38
2023-05-22T05:53:09.535Z,3.50
2023-05-22T05:55:36.792Z,3.60
2023-05-22T05:58:04.114Z,3.30
2023-05-22T06:00:31.641Z,3.35
2023-05-22T06:02:59.420Z,3.60
2023-05-22T06:05:27.042Z,3.20
2023-05-22T06:07:54.614Z,3.50
2023-05-22T06:10:21.934Z,3.20
2023-05-22T06:12:51.750Z,3.40
2023-05-22T06:15:19.276Z,3.33
2023-05-22T06:17:46.589Z,3.22
2023-05-22T06:20:14.439Z,3.55
2023-05-22T06:22:41.697Z,3.55
2023-05-22T06:25:10.734Z,3.42
2023-05-22T06:27:37.998Z,3.45
2023-05-22T06:30:05.540Z,3.42
2023-05-22T06:32:32.971Z,3.20
2023-05-22T06:35:00.456Z,3.53
2023-05-22T06:37:27.794Z,34.15
2023-05-22T06:39:55.029Z,38.38
2023-05-22T06:42:22.322Z,39.77
2023-05-22T06:44:49.612Z,39.28
2023-05-22T06:47:16.877Z,34.30
2023-05-22T06:49:44.151Z,34.47
2023-05-22T06:52:12.067Z,35.28
2023-05-22T06:54:42.869Z,38.00
2023-05-22T06:57:11.139Z,36.22
2023-05-22T06:59:38.406Z,37.58
2023-05-22T07:02:05.849Z,43.58
2023-05-22T07:04:33.138Z,45.47
2023-05-22T07:07:01.243Z,48.58
2023-05-22T07:11:55.973Z,49.72
2023-05-22T07:14:23.225Z,52.72
2023-05-22T07:16:50.554Z,51.13
2023-05-22T07:19:18.081Z,51.60
2023-05-22T07:21:45.417Z,51.70
2023-05-22T07:24:12.705Z,54.28
2023-05-22T07:26:46.449Z,54.60
2023-05-22T07:29:14.275Z,56.92
2023-05-22T07:31:42.426Z,51.30
2023-05-22T07:34:09.928Z,51.80
2023-05-22T07:36:37.648Z,52.20
2023-05-22T07:39:05.424Z,50.80
2023-05-22T07:41:33.150Z,54.70
2023-05-22T07:44:00.782Z,53.63
2023-05-22T07:46:28.119Z,53.95
2023-05-22T07:48:55.466Z,55.45
2023-05-22T07:51:22.786Z,53.38
2023-05-22T07:53:50.155Z,57.33
2023-05-22T07:56:17.787Z,58.30
2023-05-22T07:58:48.124Z,57.40
2023-05-22T08:01:18.472Z,60.33
2023-05-22T08:03:45.987Z,54.63
2023-05-22T08:06:16.138Z,57.70
2023-05-22T08:08:46.009Z,58.53
2023-05-22T08:11:13.436Z,54.30
2023-05-22T08:13:40.834Z,51.67
2023-05-22T08:16:08.674Z,52.50
2023-05-22T08:18:36.013Z,53.90
2023-05-22T08:21:03.429Z,53.38
2023-05-22T08:23:30.906Z,56.33
2023-05-22T08:25:58.645Z,51.88
2023-05-22T08:28:25.957Z,54.58
2023-05-22T08:30:54.491Z,54.92
2023-05-22T08:33:24.390Z,55.58
2023-05-22T08:35:51.687Z,55.70
2023-05-22T08:38:19.081Z,52.27
2023-05-22T08:40:51.525Z,57.78
2023-05-22T08:43:21.509Z,54.25
2023-05-22T08:45:56.115Z,51.47
2023-05-22T08:48:24.773Z,55.50
2023-05-22T08:50:57.477Z,55.35
2023-05-22T08:53:26.612Z,50.10
2023-05-22T08:55:54.528Z,51.30
2023-05-22T08:58:22.863Z,50.70
2023-05-22T09:00:50.251Z,50.00
2023-05-22T09:03:18.501Z,57.85
2023-05-22T09:05:45.993Z,55.10
2023-05-22T09:08:20.603Z,55.63
2023-05-22T09:10:50.953Z,61.70
2023-05-22T09:13:25.858Z,59.15
2023-05-22T09:15:53.214Z,56.15
2023-05-22T09:18:22.113Z,60.17
2023-05-22T09:20:52.367Z,62.58
2023-05-22T09:23:20.315Z,72.88
2023-05-22T09:25:47.848Z,66.88
2023-05-22T09:28:15.177Z,66.15
2023-05-22T09:30:42.906Z,66.53
2023-05-22T09:33:14.260Z,63.65
2023-05-22T09:35:42.211Z,68.65
2023-05-22T09:38:10.836Z,67.53
2023-05-22T09:40:42.298Z,68.55
2023-05-22T09:43:13.048Z,74.85
2023-05-22T09:45:40.428Z,66.50
2023-05-22T09:48:09.437Z,68.57
2023-05-22T09:50:37.532Z,68.65
2023-05-22T09:53:05.848Z,68.47
2023-05-22T09:58:04.754Z,61.08
2023-05-22T10:00:34.396Z,65.72
2023-05-22T10:03:05.271Z,68.22
2023-05-22T10:05:32.857Z,68.93
2023-05-22T10:08:06.171Z,66.30
2023-05-22T10:10:33.888Z,65.80
2023-05-22T10:13:02.482Z,66.57
2023-05-22T10:15:30.596Z,60.65
2023-05-22T10:17:58.855Z,61.08
2023-05-22T10:20:26.997Z,65.50
2023-05-22T10:25:25.836Z,67.83
2023-05-22T10:27:53.939Z,65.68
2023-05-22T10:30:33.473Z,70.78
2023-05-22T10:33:01.220Z,61.78
2023-05-22T10:35:48.909Z,68.35
2023-05-22T10:38:22.119Z,78.75
2023-05-22T10:40:49.473Z,65.85
2023-05-22T10:43:16.828Z,67.50
2023-05-22T10:45:45.846Z,71.23
2023-05-22T10:48:13.188Z,64.78
2023-05-22T10:50:41.037Z,63.77
2023-05-22T10:55:47.332Z,58.28
2023-05-22T10:58:14.863Z,58.58
2023-05-22T11:00:42.393Z,57.25
2023-05-22T11:03:18.066Z,55.00
2023-05-22T11:05:54.011Z,52.20
2023-05-22T11:08:27.365Z,51.67
2023-05-22T11:10:56.192Z,50.10
2023-05-22T11:13:29.032Z,49.45
2023-05-22T11:15:57.875Z,49.00
2023-05-22T11:18:27.703Z,47.53
2023-05-22T11:20:55.054Z,47.78
2023-05-22T11:23:23.909Z,45.83
2023-05-22T11:25:51.307Z,47.55
2023-05-22T11:28:18.792Z,47.15
2023-05-22T11:30:46.884Z,46.60
2023-05-22T11:35:42.851Z,47.13
2023-05-22T11:38:10.597Z,48.25
2023-05-22T11:40:38.168Z,47.42
2023-05-22T11:43:05.914Z,46.22
2023-05-22T11:45:37.692Z,46.10
2023-05-22T11:48:05.170Z,45.92
2023-05-22T11:50:41.745Z,44.55
2023-05-22T11:53:09.903Z,43.90
2023-05-22T11:55:39.428Z,44.88
2023-05-22T11:58:06.787Z,46.30
2023-05-22T12:00:34.147Z,44.92
2023-05-22T12:03:01.570Z,44.42
2023-05-22T12:05:29.011Z,44.00
2023-05-22T12:07:56.395Z,44.20
2023-05-22T12:10:23.726Z,43.50
2023-05-22T12:12:53.475Z,44.88
2023-05-22T12:15:21.251Z,42.60
2023-05-22T12:17:48.768Z,43.38
2023-05-22T12:20:18.503Z,44.05
2023-05-22T12:22:45.862Z,44.20
2023-05-22T12:25:20.462Z,43.05
2023-05-22T12:27:47.947Z,40.13
2023-05-22T12:30:15.956Z,40.87
2023-05-22T12:35:16.866Z,40.63
2023-05-22T12:37:51.186Z,40.55
2023-05-22T12:40:18.747Z,39.30
2023-05-22T12:42:46.184Z,40.83
2023-05-22T12:45:13.963Z,39.55
2023-05-22T12:47:41.395Z,38.95
2023-05-22T12:50:09.242Z,38.95
2023-05-22T12:52:36.688Z,38.50
2023-05-22T12:55:04.589Z,39.10
2023-05-22T12:57:31.907Z,37.38
2023-05-22T12:59:59.216Z,38.27
2023-05-22T13:02:26.765Z,39.20
2023-05-22T13:04:54.104Z,36.92
2023-05-22T13:07:23.597Z,37.08
2023-05-22T13:09:50.887Z,36.75
2023-05-22T13:12:19.309Z,37.33
2023-05-22T13:14:46.860Z,35.33
2023-05-22T13:17:14.209Z,34.72
2023-05-22T13:19:41.486Z,36.35
2023-05-22T13:22:09.012Z,36.63
2023-05-22T13:24:36.549Z,34.55
2023-05-22T13:27:03.836Z,35.95
2023-05-22T13:29:31.089Z,35.47
2023-05-22T13:31:58.357Z,34.60
2023-05-22T13:34:25.775Z,35.30
2023-05-22T13:36:53.250Z,34.97
2023-05-22T13:39:20.531Z,34.13
2023-05-22T13:41:47.855Z,34.20
2023-05-22T13:44:15.456Z,34.72
2023-05-22T13:46:42.778Z,33.92
2023-05-22T13:49:10.089Z,33.92
2023-05-22T13:51:37.984Z,34.58
2023-05-22T13:54:05.436Z,33.17
2023-05-22T13:56:32.704Z,33.15
2023-05-22T13:59:00.132Z,33.37
2023-05-22T14:01:27.673Z,32.03
2023-05-22T14:03:57.627Z,31.98
2023-05-22T14:06:24.884Z,31.95
2023-05-22T14:08:54.709Z,33.55
2023-05-22T14:11:22.456Z,32.92
2023-05-22T14:13:50.648Z,32.25
2023-05-22T14:16:17.955Z,31.67
2023-05-22T14:18:45.252Z,32.72
2023-05-22T14:21:12.528Z,31.85
2023-05-22T14:23:39.802Z,30.83
2023-05-22T14:26:07.083Z,30.37
2023-05-22T14:28:34.359Z,28.40
2023-05-22T14:31:01.746Z,26.77
2023-05-22T14:33:31.245Z,25.33
2023-05-22T14:35:58.534Z,24.65
2023-05-22T14:38:29.914Z,23.65
2023-05-22T14:40:57.167Z,23.27
2023-05-22T14:43:24.468Z,21.95
2023-05-22T14:45:51.950Z,21.38
2023-05-22T14:48:19.529Z,21.00
2023-05-22T14:50:47.607Z,18.83
2023-05-22T14:55:43.392Z,18.98
2023-05-22T14:58:11.044Z,18.70
2023-05-22T15:00:38.399Z,17.00
2023-05-22T15:03:07.994Z,20.23
2023-05-22T15:05:35.314Z,17.02
2023-05-22T15:08:02.745Z,17.05
2023-05-22T15:10:30.142Z,16.13
2023-05-22T15:12:57.442Z,16.27
2023-05-22T15:15:24.906Z,16.20
2023-05-22T15:17:52.258Z,15.48
2023-05-22T15:20:19.627Z,16.02
2023-05-22T15:22:46.910Z,15.50
2023-05-22T15:25:17.432Z,14.88
2023-05-22T15:27:47.658Z,14.68
2023-05-22T15:30:17.032Z,13.70
2023-05-22T15:32:44.529Z,14.60
2023-05-22T15:35:14.008Z,14.55
2023-05-22T15:37:41.408Z,14.05
2023-05-22T15:40:16.258Z,13.75
2023-05-22T15:42:43.719Z,14.57
2023-05-22T15:45:11.134Z,14.30
2023-05-22T15:47:38.464Z,13.73
2023-05-22T15:50:06.135Z,14.40
2023-05-22T15:52:33.427Z,14.30
2023-05-22T15:55:01.014Z,13.73
2023-05-22T15:57:28.793Z,13.52
2023-05-22T15:59:56.382Z,13.82
2023-05-22T16:02:23.761Z,13.60
2023-05-22T16:04:51.946Z,13.02
2023-05-22T16:07:20.207Z,12.82
2023-05-22T16:09:47.490Z,13.60
2023-05-22T16:12:14.792Z,13.63
2023-05-22T16:14:42.194Z,13.52
2023-05-22T16:17:09.468Z,13.18
2023-05-22T16:19:36.940Z,13.18
2023-05-22T16:22:04.501Z,12.95
2023-05-22T16:24:31.785Z,12.55
2023-05-22T16:27:00.120Z,12.32
2023-05-22T16:29:27.386Z,11.95
2023-05-22T16:31:54.771Z,12.93
2023-05-22T16:34:22.072Z,13.23
2023-05-22T16:36:49.398Z,12.88
2023-05-22T16:39:16.834Z,12.07
2023-05-22T16:41:44.210Z,12.45
2023-05-22T16:44:11.500Z,11.82
2023-05-22T16:46:38.809Z,12.27
2023-05-22T16:49:06.210Z,11.75
2023-05-22T16:51:33.525Z,12.23
2023-05-22T16:54:00.853Z,12.27
2023-05-22T16:56:28.230Z,12.48
2023-05-22T16:58:55.580Z,11.93
2023-05-22T17:01:23.522Z,12.48
2023-05-22T17:03:50.923Z,11.90
2023-05-22T17:06:21.239Z,12.15
2023-05-22T17:08:48.564Z,11.80
2023-05-22T17:11:15.854Z,11.68
2023-05-22T17:13:43.150Z,12.65
2023-05-22T17:16:10.493Z,11.60
2023-05-22T17:18:37.872Z,12.38
2023-05-22T17:21:05.276Z,11.65
2023-05-22T17:23:37.005Z,11.63
2023-05-22T17:26:04.739Z,12.13
2023-05-22T17:28:32.423Z,11.27
2023-05-22T17:30:59.758Z,12.07
2023-05-22T17:33:27.040Z,12.25
2023-05-22T17:35:54.435Z,11.90
2023-05-22T17:38:22.042Z,12.07
2023-05-22T17:40:49.655Z,11.85
2023-05-22T17:43:19.021Z,11.25
2023-05-22T17:45:49.961Z,11.73
2023-05-22T17:48:23.373Z,11.40
2023-05-22T17:50:50.730Z,12.40
2023-05-22T17:53:21.082Z,12.18
2023-05-22T17:55:52.602Z,11.90
2023-05-22T17:58:21.121Z,10.98
2023-05-22T18:00:49.133Z,11.68
2023-05-22T18:05:48.441Z,10.98
2023-05-22T18:08:16.001Z,10.68
2023-05-22T18:10:43.510Z,10.57
2023-05-22T18:13:11.666Z,11.23
2023-05-22T18:15:39.003Z,11.70
2023-05-22T18:18:06.462Z,11.50
2023-05-22T18:20:33.819Z,11.48
2023-05-22T18:23:01.146Z,11.70
2023-05-22T18:25:28.408Z,11.70
2023-05-22T18:27:55.735Z,10.75
2023-05-22T18:30:23.046Z,11.07
2023-05-22T18:32:50.463Z,11.25
2023-05-22T18:35:17.728Z,11.15
2023-05-22T18:37:45.169Z,11.05
2023-05-22T18:40:15.286Z,10.95
2023-05-22T18:42:43.529Z,11.60
2023-05-22T18:45:14.389Z,11.40
2023-05-22T18:47:41.795Z,11.38
2023-05-22T18:50:09.210Z,9.82
2023-05-22T18:52:37.130Z,10.60
2023-05-22T18:55:04.916Z,10.93
2023-05-22T18:57:32.178Z,10.95
2023-05-22T19:00:01.971Z,11.18
2023-05-22T19:02:29.366Z,10.63
2023-05-22T19:04:56.738Z,11.05
2023-05-22T19:07:24.093Z,10.50
2023-05-22T19:09:51.448Z,10.98
2023-05-22T19:12:18.838Z,10.77
2023-05-22T19:14:48.458Z,10.80
2023-05-22T19:17:18.061Z,11.10
2023-05-22T19:19:46.621Z,10.95
2023-05-22T19:22:17.674Z,10.68
2023-05-22T19:24:45.419Z,10.70
2023-05-22T19:27:12.720Z,10.90
2023-05-22T19:29:42.520Z,11.32
2023-05-22T19:32:09.853Z,11.13
2023-05-22T19:34:37.159Z,10.98
2023-05-22T19:37:04.519Z,10.57
2023-05-22T19:39:31.984Z,10.68
2023-05-22T19:41:59.316Z,10.70
2023-05-22T19:44:26.625Z,10.13
2023-05-22T19:46:53.989Z,10.90
2023-05-22T19:49:23.528Z,10.55
2023-05-22T19:51:50.937Z,10.57
2023-05-22T19:54:18.279Z,10.70
2023-05-22T19:56:45.605Z,10.32
2023-05-22T19:59:15.391Z,10.02
2023-05-22T20:01:46.988Z,10.70
2023-05-22T20:04:14.532Z,10.35
2023-05-22T20:06:45.308Z,10.45
2023-05-22T20:09:12.797Z,10.18
2023-05-22T20:11:40.082Z,10.40
2023-05-22T20:14:07.706Z,10.05
2023-05-22T20:16:35.106Z,10.32
2023-05-22T20:19:03.888Z,10.30
2023-05-22T20:21:32.073Z,10.18
2023-05-22T20:23:59.622Z,10.07
2023-05-22T20:26:26.940Z,10.20
2023-05-22T20:28:54.231Z,10.27
2023-05-22T20:31:21.587Z,10.48
2023-05-22T20:33:48.918Z,10.35
2023-05-22T20:36:16.513Z,10.27
2023-05-22T20:38:43.799Z,10.27
2023-05-22T20:41:12.889Z,10.15
2023-05-22T20:43:43.422Z,10.15
2023-05-22T20:46:11.041Z,10.05
2023-05-22T20:48:38.518Z,9.55
2023-05-22T20:51:05.997Z,10.50
2023-05-22T20:53:35.616Z,10.23
2023-05-22T20:56:02.923Z,10.10
2023-05-22T20:58:30.191Z,10.00
2023-05-22T21:00:57.677Z,9.60
2023-05-22T21:03:25.983Z,9.75
2023-05-22T21:05:55.841Z,9.98
2023-05-22T21:08:23.109Z,10.30
2023-05-22T21:10:50.368Z,10.52
2023-05-22T21:13:17.650Z,10.73
2023-05-22T21:15:47.121Z,9.70
2023-05-22T21:18:15.864Z,9.88
2023-05-22T21:20:43.158Z,9.82
2023-05-22T21:23:10.423Z,9.55
2023-05-22T21:25:37.756Z,9.00
2023-05-22T21:28:05.231Z,9.85
2023-05-22T21:30:32.497Z,9.63
2023-05-22T21:32:59.872Z,9.23
2023-05-22T21:35:27.158Z,9.82
2023-05-22T21:37:56.647Z,8.90
2023-05-22T21:40:24.750Z,8.90
2023-05-22T21:42:52.035Z,9.77
2023-05-22T21:45:19.320Z,9.35
2023-05-22T21:47:46.654Z,9.65
2023-05-22T21:50:13.963Z,9.02
2023-05-22T21:52:41.357Z,9.25
2023-05-22T21:55:08.807Z,9.02
2023-05-22T21:57:36.104Z,9.00
2023-05-22T22:00:03.387Z,9.00
2023-05-22T22:02:30.792Z,8.95
2023-05-22T22:05:00.492Z,9.73
2023-05-22T22:07:27.765Z,9.35
2023-05-22T22:09:55.039Z,9.30
2023-05-22T22:12:22.296Z,9.45
2023-05-22T22:14:49.553Z,9.40
2023-05-22T22:17:16.906Z,8.75
2023-05-22T22:19:45.202Z,8.80
2023-05-22T22:22:12.588Z,9.23
2023-05-22T22:24:40.068Z,8.73
2023-05-22T22:27:07.354Z,9.15
2023-05-22T22:29:34.605Z,9.10
2023-05-22T22:32:02.063Z,9.10
2023-05-22T22:34:29.410Z,9.30
2023-05-22T22:36:57.620Z,9.23
2023-05-22T22:39:26.510Z,9.90
2023-05-22T22:41:53.799Z,9.38
2023-05-22T22:44:21.147Z,9.80
2023-05-22T22:46:48.420Z,8.35
2023-05-22T22:49:15.870Z,9.27
2023-05-22T22:51:45.567Z,8.77
2023-05-22T22:54:15.239Z,9.30
2023-05-22T22:56:42.621Z,9.38
2023-05-22T22:59:10.006Z,9.13
2023-05-22T23:01:39.787Z,8.60
2023-05-22T23:04:07.141Z,8.77
2023-05-22T23:06:35.295Z,8.45
2023-05-22T23:09:03.917Z,9.02
2023-05-22T23:11:37.439Z,9.13
2023-05-22T23:14:07.321Z,8.77
2023-05-22T23:16:35.935Z,8.35
2023-05-22T23:19:06.440Z,8.73
2023-05-22T23:21:34.212Z,8.80
2023-05-22T23:24:02.480Z,8.52
2023-05-22T23:26:29.731Z,8.57
2023-05-22T23:28:57.051Z,9.18
2023-05-22T23:31:26.026Z,8.77
2023-05-22T23:33:53.977Z,9.05
2023-05-22T23:36:21.322Z,9.00
2023-05-22T23:38:48.705Z,9.80
2023-05-22T23:41:19.004Z,8.98
2023-05-22T23:43:46.829Z,8.52
2023-05-22T23:46:14.755Z,8.98
2023-05-22T23:51:14.422Z,9.07
2023-05-22T23:53:42.518Z,8.70
2023-05-22T23:56:10.115Z,8.80
2023-05-22T23:58:40.410Z,8.90
